sensor_id;sensor_type;location;lat;lon;timestamp;P1;durP1;ratioP1;P2;durP2;ratioP2
30543;SDS011;43388;46.308;4.600;2022-12-07T00:01:42;21.25;;;19.13;;
30543;SDS011;43388;46.308;4.600;2022-12-07T00:04:13;33.53;;;20.33;;
30543;SDS011;43388;46.308;4.600;2022-12-07T00:06:40;24.63;;;19.48;;
30543;SDS011;43388;46.308;4.600;2022-12-07T00:09:08;20.80;;;18.70;;
30543;SDS011;43388;46.308;4.600;2022-12-07T00:11:35;22.25;;;18.08;;
30543;SDS011;43388;46.308;4.600;2022-12-07T00:14:02;19.98;;;17.80;;
30543;SDS011;43388;46.308;4.600;2022-12-07T00:16:29;22.83;;;19.55;;
30543;SDS011;43388;46.308;4.600;2022-12-07T00:18:56;21.92;;;19.08;;
30543;SDS011;43388;46.308;4.600;2022-12-07T00:21:23;20.77;;;18.58;;
30543;SDS011;43388;46.308;4.600;2022-12-07T00:23:50;22.10;;;18.92;;
30543;SDS011;43388;46.308;4.600;2022-12-07T00:26:20;21.75;;;19.42;;
30543;SDS011;43388;46.308;4.600;2022-12-07T00:28:47;20.80;;;18.50;;
30543;SDS011;43388;46.308;4.600;2022-12-07T00:31:13;24.73;;;18.83;;
30543;SDS011;43388;46.308;4.600;2022-12-07T00:33:39;19.42;;;17.20;;
30543;SDS011;43388;46.308;4.600;2022-12-07T00:36:06;22.52;;;19.30;;
30543;SDS011;43388;46.308;4.600;2022-12-07T00:38:33;21.25;;;18.25;;
30543;SDS011;43388;46.308;4.600;2022-12-07T00:41:18;20.67;;;18.20;;
30543;SDS011;43388;46.308;4.600;2022-12-07T00:43:45;32.28;;;19.92;;
30543;SDS011;43388;46.308;4.600;2022-12-07T00:46:12;34.15;;;18.25;;
30543;SDS011;43388;46.308;4.600;2022-12-07T00:48:39;24.15;;;19.13;;
30543;SDS011;43388;46.308;4.600;2022-12-07T00:51:05;20.42;;;18.10;;
30543;SDS011;43388;46.308;4.600;2022-12-07T00:53:34;21.98;;;19.27;;
30543;SDS011;43388;46.308;4.600;2022-12-07T00:56:14;21.58;;;19.20;;
30543;SDS011;43388;46.308;4.600;2022-12-07T00:58:40;26.75;;;20.38;;
30543;SDS011;43388;46.308;4.600;2022-12-07T01:01:07;21.50;;;18.83;;
30543;SDS011;43388;46.308;4.600;2022-12-07T01:03:33;21.17;;;17.90;;
30543;SDS011;43388;46.308;4.600;2022-12-07T01:06:00;21.25;;;17.75;;
30543;SDS011;43388;46.308;4.600;2022-12-07T01:08:27;21.35;;;18.65;;
30543;SDS011;43388;46.308;4.600;2022-12-07T01:11:03;17.98;;;16.08;;
30543;SDS011;43388;46.308;4.600;2022-12-07T01:13:30;18.95;;;16.55;;
30543;SDS011;43388;46.308;4.600;2022-12-07T01:15:57;20.83;;;17.05;;
30543;SDS011;43388;46.308;4.600;2022-12-07T01:18:24;19.83;;;16.90;;
30543;SDS011;43388;46.308;4.600;2022-12-07T01:21:04;20.25;;;16.73;;
30543;SDS011;43388;46.308;4.600;2022-12-07T01:23:31;23.08;;;18.27;;
30543;SDS011;43388;46.308;4.600;2022-12-07T01:25:58;19.85;;;16.27;;
30543;SDS011;43388;46.308;4.600;2022-12-07T01:28:24;17.58;;;15.68;;
30543;SDS011;43388;46.308;4.600;2022-12-07T01:33:22;19.73;;;14.82;;
30543;SDS011;43388;46.308;4.600;2022-12-07T01:35:49;20.27;;;16.35;;
30543;SDS011;43388;46.308;4.600;2022-12-07T01:38:15;18.88;;;16.45;;
30543;SDS011;43388;46.308;4.600;2022-12-07T01:40:41;19.13;;;16.30;;
30543;SDS011;43388;46.308;4.600;2022-12-07T01:43:14;20.25;;;16.63;;
30543;SDS011;43388;46.308;4.600;2022-12-07T01:45:43;20.88;;;16.77;;
30543;SDS011;43388;46.308;4.600;2022-12-07T01:48:09;18.35;;;16.38;;
30543;SDS011;43388;46.308;4.600;2022-12-07T01:50:36;18.98;;;16.73;;
30543;SDS011;43388;46.308;4.600;2022-12-07T01:53:04;18.88;;;15.90;;
30543;SDS011;43388;46.308;4.600;2022-12-07T01:55:31;21.35;;;17.27;;
30543;SDS011;43388;46.308;4.600;2022-12-07T01:57:57;18.80;;;16.58;;
30543;SDS011;43388;46.308;4.600;2022-12-07T02:00:23;21.45;;;18.30;;
30543;SDS011;43388;46.308;4.600;2022-12-07T02:02:57;20.40;;;17.27;;
30543;SDS011;43388;46.308;4.600;2022-12-07T02:05:25;22.45;;;18.55;;
30543;SDS011;43388;46.308;4.600;2022-12-07T02:07:53;19.23;;;17.13;;
30543;SDS011;43388;46.308;4.600;2022-12-07T02:10:24;20.00;;;16.90;;
30543;SDS011;43388;46.308;4.600;2022-12-07T02:12:52;18.60;;;16.55;;
30543;SDS011;43388;46.308;4.600;2022-12-07T02:15:20;17.80;;;15.80;;
30543;SDS011;43388;46.308;4.600;2022-12-07T02:20:35;16.85;;;15.10;;
30543;SDS011;43388;46.308;4.600;2022-12-07T02:30:38;19.23;;;16.55;;
30543;SDS011;43388;46.308;4.600;2022-12-07T02:33:11;17.13;;;14.80;;
30543;SDS011;43388;46.308;4.600;2022-12-07T02:38:12;18.80;;;15.82;;
30543;SDS011;43388;46.308;4.600;2022-12-07T02:40:44;18.65;;;16.45;;
30543;SDS011;43388;46.308;4.600;2022-12-07T02:43:16;19.10;;;15.70;;
30543;SDS011;43388;46.308;4.600;2022-12-07T02:45:43;18.17;;;16.27;;
30543;SDS011;43388;46.308;4.600;2022-12-07T02:48:12;23.95;;;18.02;;
30543;SDS011;43388;46.308;4.600;2022-12-07T02:50:39;22.58;;;19.00;;
30543;SDS011;43388;46.308;4.600;2022-12-07T02:55:54;14.30;;;12.75;;
30543;SDS011;43388;46.308;4.600;2022-12-07T02:58:30;19.63;;;17.45;;
30543;SDS011;43388;46.308;4.600;2022-12-07T03:10:56;22.50;;;18.88;;
30543;SDS011;43388;46.308;4.600;2022-12-07T03:15:57;20.80;;;18.33;;
30543;SDS011;43388;46.308;4.600;2022-12-07T03:18:25;26.48;;;20.88;;
30543;SDS011;43388;46.308;4.600;2022-12-07T03:20:52;24.48;;;19.20;;
30543;SDS011;43388;46.308;4.600;2022-12-07T03:23:20;24.08;;;20.30;;
30543;SDS011;43388;46.308;4.600;2022-12-07T03:25:48;20.65;;;18.30;;
30543;SDS011;43388;46.308;4.600;2022-12-07T03:28:16;23.27;;;18.42;;
30543;SDS011;43388;46.308;4.600;2022-12-07T03:30:55;20.40;;;17.55;;
30543;SDS011;43388;46.308;4.600;2022-12-07T03:33:23;22.15;;;18.42;;
30543;SDS011;43388;46.308;4.600;2022-12-07T03:36:55;19.83;;;17.48;;
30543;SDS011;43388;46.308;4.600;2022-12-07T03:38:50;20.38;;;16.42;;
30543;SDS011;43388;46.308;4.600;2022-12-07T03:41:19;20.00;;;17.38;;
30543;SDS011;43388;46.308;4.600;2022-12-07T03:43:48;20.20;;;17.90;;
30543;SDS011;43388;46.308;4.600;2022-12-07T03:48:51;20.33;;;17.30;;
30543;SDS011;43388;46.308;4.600;2022-12-07T03:51:25;19.92;;;17.15;;
30543;SDS011;43388;46.308;4.600;2022-12-07T03:53:58;20.40;;;16.58;;
30543;SDS011;43388;46.308;4.600;2022-12-07T03:56:26;21.88;;;17.65;;
30543;SDS011;43388;46.308;4.600;2022-12-07T03:58:53;30.23;;;17.95;;
30543;SDS011;43388;46.308;4.600;2022-12-07T04:01:19;168.98;;;22.25;;
30543;SDS011;43388;46.308;4.600;2022-12-07T04:03:46;176.80;;;23.67;;
30543;SDS011;43388;46.308;4.600;2022-12-07T04:06:12;38.10;;;17.92;;
30543;SDS011;43388;46.308;4.600;2022-12-07T04:08:38;32.58;;;18.02;;
30543;SDS011;43388;46.308;4.600;2022-12-07T04:11:04;39.30;;;18.50;;
30543;SDS011;43388;46.308;4.600;2022-12-07T04:13:30;23.45;;;19.00;;
30543;SDS011;43388;46.308;4.600;2022-12-07T04:16:16;81.88;;;20.00;;
30543;SDS011;43388;46.308;4.600;2022-12-07T04:18:42;29.40;;;17.52;;
30543;SDS011;43388;46.308;4.600;2022-12-07T04:21:08;70.05;;;19.67;;
30543;SDS011;43388;46.308;4.600;2022-12-07T04:23:34;31.10;;;18.13;;
30543;SDS011;43388;46.308;4.600;2022-12-07T04:26:00;30.23;;;18.48;;
30543;SDS011;43388;46.308;4.600;2022-12-07T04:28:26;191.30;;;27.65;;
30543;SDS011;43388;46.308;4.600;2022-12-07T04:30:52;76.00;;;21.13;;
30543;SDS011;43388;46.308;4.600;2022-12-07T04:33:18;49.40;;;44.13;;
30543;SDS011;43388;46.308;4.600;2022-12-07T04:35:44;209.90;;;29.83;;
30543;SDS011;43388;46.308;4.600;2022-12-07T04:38:10;94.32;;;26.27;;
30543;SDS011;43388;46.308;4.600;2022-12-07T04:40:36;173.88;;;27.92;;
30543;SDS011;43388;46.308;4.600;2022-12-07T04:43:02;314.25;;;30.55;;
30543;SDS011;43388;46.308;4.600;2022-12-07T04:45:28;178.68;;;23.40;;
30543;SDS011;43388;46.308;4.600;2022-12-07T04:47:54;159.48;;;26.63;;
30543;SDS011;43388;46.308;4.600;2022-12-07T04:50:20;193.90;;;23.92;;
30543;SDS011;43388;46.308;4.600;2022-12-07T04:52:46;105.93;;;22.00;;
30543;SDS011;43388;46.308;4.600;2022-12-07T04:55:12;30.75;;;19.55;;
30543;SDS011;43388;46.308;4.600;2022-12-07T04:57:38;31.75;;;18.75;;
30543;SDS011;43388;46.308;4.600;2022-12-07T05:00:04;121.75;;;22.23;;
30543;SDS011;43388;46.308;4.600;2022-12-07T05:02:30;66.55;;;22.10;;
30543;SDS011;43388;46.308;4.600;2022-12-07T05:04:56;43.22;;;18.23;;
30543;SDS011;43388;46.308;4.600;2022-12-07T05:07:22;146.75;;;21.58;;
30543;SDS011;43388;46.308;4.600;2022-12-07T05:09:48;28.88;;;19.50;;
30543;SDS011;43388;46.308;4.600;2022-12-07T05:12:14;75.85;;;21.08;;
30543;SDS011;43388;46.308;4.600;2022-12-07T05:14:40;25.13;;;18.85;;
30543;SDS011;43388;46.308;4.600;2022-12-07T05:17:06;23.67;;;19.00;;
30543;SDS011;43388;46.308;4.600;2022-12-07T05:19:32;22.98;;;18.65;;
30543;SDS011;43388;46.308;4.600;2022-12-07T05:21:58;26.05;;;21.80;;
30543;SDS011;43388;46.308;4.600;2022-12-07T05:24:24;24.42;;;19.75;;
30543;SDS011;43388;46.308;4.600;2022-12-07T05:26:50;24.88;;;20.40;;
30543;SDS011;43388;46.308;4.600;2022-12-07T05:29:17;27.70;;;20.60;;
30543;SDS011;43388;46.308;4.600;2022-12-07T05:31:43;30.58;;;22.45;;
30543;SDS011;43388;46.308;4.600;2022-12-07T05:34:09;34.25;;;26.30;;
30543;SDS011;43388;46.308;4.600;2022-12-07T05:36:35;58.60;;;39.67;;
30543;SDS011;43388;46.308;4.600;2022-12-07T05:39:02;61.13;;;44.03;;
30543;SDS011;43388;46.308;4.600;2022-12-07T05:41:28;41.25;;;31.63;;
30543;SDS011;43388;46.308;4.600;2022-12-07T05:44:13;38.38;;;26.05;;
30543;SDS011;43388;46.308;4.600;2022-12-07T05:46:39;32.85;;;23.15;;
30543;SDS011;43388;46.308;4.600;2022-12-07T05:49:05;36.40;;;27.13;;
30543;SDS011;43388;46.308;4.600;2022-12-07T05:51:31;38.10;;;25.70;;
30543;SDS011;43388;46.308;4.600;2022-12-07T05:53:57;39.15;;;25.77;;
30543;SDS011;43388;46.308;4.600;2022-12-07T05:56:23;35.03;;;24.55;;
30543;SDS011;43388;46.308;4.600;2022-12-07T05:58:49;36.40;;;24.20;;
30543;SDS011;43388;46.308;4.600;2022-12-07T06:01:33;38.27;;;24.70;;
30543;SDS011;43388;46.308;4.600;2022-12-07T06:04:00;35.10;;;25.10;;
30543;SDS011;43388;46.308;4.600;2022-12-07T06:06:26;53.28;;;25.33;;
30543;SDS011;43388;46.308;4.600;2022-12-07T06:08:52;40.60;;;24.65;;
30543;SDS011;43388;46.308;4.600;2022-12-07T06:11:18;62.30;;;26.52;;
30543;SDS011;43388;46.308;4.600;2022-12-07T06:14:02;45.55;;;25.27;;
30543;SDS011;43388;46.308;4.600;2022-12-07T06:16:28;51.90;;;28.35;;
30543;SDS011;43388;46.308;4.600;2022-12-07T06:18:54;43.28;;;27.65;;
30543;SDS011;43388;46.308;4.600;2022-12-07T06:21:20;46.28;;;28.42;;
30543;SDS011;43388;46.308;4.600;2022-12-07T06:23:46;95.25;;;57.05;;
30543;SDS011;43388;46.308;4.600;2022-12-07T06:26:13;200.38;;;124.35;;
30543;SDS011;43388;46.308;4.600;2022-12-07T06:28:39;92.00;;;55.95;;
30543;SDS011;43388;46.308;4.600;2022-12-07T06:31:05;61.60;;;35.05;;
30543;SDS011;43388;46.308;4.600;2022-12-07T06:33:32;52.63;;;31.80;;
30543;SDS011;43388;46.308;4.600;2022-12-07T06:35:58;51.35;;;30.52;;
30543;SDS011;43388;46.308;4.600;2022-12-07T06:38:24;58.05;;;32.20;;
30543;SDS011;43388;46.308;4.600;2022-12-07T06:40:50;46.70;;;31.35;;
30543;SDS011;43388;46.308;4.600;2022-12-07T06:43:16;67.38;;;30.80;;
30543;SDS011;43388;46.308;4.600;2022-12-07T06:45:42;48.03;;;29.10;;
30543;SDS011;43388;46.308;4.600;2022-12-07T06:48:08;41.08;;;28.17;;
30543;SDS011;43388;46.308;4.600;2022-12-07T06:50:34;43.22;;;28.77;;
30543;SDS011;43388;46.308;4.600;2022-12-07T06:53:00;42.40;;;28.50;;
30543;SDS011;43388;46.308;4.600;2022-12-07T06:55:26;38.47;;;26.42;;
30543;SDS011;43388;46.308;4.600;2022-12-07T06:57:52;38.55;;;26.75;;
30543;SDS011;43388;46.308;4.600;2022-12-07T07:00:18;40.40;;;26.60;;
30543;SDS011;43388;46.308;4.600;2022-12-07T07:02:44;38.67;;;26.75;;
30543;SDS011;43388;46.308;4.600;2022-12-07T07:05:10;34.63;;;25.75;;
30543;SDS011;43388;46.308;4.600;2022-12-07T07:07:36;38.55;;;29.85;;
30543;SDS011;43388;46.308;4.600;2022-12-07T07:10:02;37.70;;;28.85;;
30543;SDS011;43388;46.308;4.600;2022-12-07T07:12:29;43.33;;;34.03;;
30543;SDS011;43388;46.308;4.600;2022-12-07T07:14:55;38.90;;;31.75;;
30543;SDS011;43388;46.308;4.600;2022-12-07T07:17:21;49.38;;;31.52;;
30543;SDS011;43388;46.308;4.600;2022-12-07T07:19:47;41.60;;;33.78;;
30543;SDS011;43388;46.308;4.600;2022-12-07T07:22:13;45.28;;;36.08;;
30543;SDS011;43388;46.308;4.600;2022-12-07T07:24:39;43.17;;;35.70;;
30543;SDS011;43388;46.308;4.600;2022-12-07T07:27:05;40.40;;;31.38;;
30543;SDS011;43388;46.308;4.600;2022-12-07T07:29:32;43.92;;;30.48;;
30543;SDS011;43388;46.308;4.600;2022-12-07T07:31:58;45.70;;;35.58;;
30543;SDS011;43388;46.308;4.600;2022-12-07T07:34:25;45.45;;;34.10;;
30543;SDS011;43388;46.308;4.600;2022-12-07T07:36:51;42.63;;;30.63;;
30543;SDS011;43388;46.308;4.600;2022-12-07T07:39:17;44.65;;;33.42;;
30543;SDS011;43388;46.308;4.600;2022-12-07T07:41:43;39.97;;;29.98;;
30543;SDS011;43388;46.308;4.600;2022-12-07T07:44:09;47.35;;;32.33;;
30543;SDS011;43388;46.308;4.600;2022-12-07T07:46:35;49.05;;;37.70;;
30543;SDS011;43388;46.308;4.600;2022-12-07T07:49:01;57.00;;;42.67;;
30543;SDS011;43388;46.308;4.600;2022-12-07T07:51:27;42.38;;;30.80;;
30543;SDS011;43388;46.308;4.600;2022-12-07T07:53:53;45.85;;;34.53;;
30543;SDS011;43388;46.308;4.600;2022-12-07T07:56:19;59.40;;;39.53;;
30543;SDS011;43388;46.308;4.600;2022-12-07T07:58:46;38.80;;;29.65;;
30543;SDS011;43388;46.308;4.600;2022-12-07T08:01:12;44.67;;;33.95;;
30543;SDS011;43388;46.308;4.600;2022-12-07T08:03:38;45.60;;;33.97;;
30543;SDS011;43388;46.308;4.600;2022-12-07T08:06:04;47.83;;;33.75;;
30543;SDS011;43388;46.308;4.600;2022-12-07T08:08:31;36.22;;;26.80;;
30543;SDS011;43388;46.308;4.600;2022-12-07T08:10:57;43.00;;;32.08;;
30543;SDS011;43388;46.308;4.600;2022-12-07T08:13:26;38.85;;;29.73;;
30543;SDS011;43388;46.308;4.600;2022-12-07T08:15:53;39.25;;;28.00;;
30543;SDS011;43388;46.308;4.600;2022-12-07T08:18:19;44.13;;;30.17;;
30543;SDS011;43388;46.308;4.600;2022-12-07T08:20:45;37.00;;;29.55;;
30543;SDS011;43388;46.308;4.600;2022-12-07T08:23:11;37.63;;;29.52;;
30543;SDS011;43388;46.308;4.600;2022-12-07T08:25:37;37.10;;;28.50;;
30543;SDS011;43388;46.308;4.600;2022-12-07T08:28:03;44.50;;;35.53;;
30543;SDS011;43388;46.308;4.600;2022-12-07T08:30:30;38.67;;;27.65;;
30543;SDS011;43388;46.308;4.600;2022-12-07T08:32:56;40.53;;;28.95;;
30543;SDS011;43388;46.308;4.600;2022-12-07T08:35:22;43.90;;;33.00;;
30543;SDS011;43388;46.308;4.600;2022-12-07T08:37:48;39.88;;;31.92;;
30543;SDS011;43388;46.308;4.600;2022-12-07T08:40:14;49.10;;;38.17;;
30543;SDS011;43388;46.308;4.600;2022-12-07T08:42:44;52.97;;;41.58;;
30543;SDS011;43388;46.308;4.600;2022-12-07T08:45:11;40.97;;;30.52;;
30543;SDS011;43388;46.308;4.600;2022-12-07T08:47:39;41.55;;;29.58;;
30543;SDS011;43388;46.308;4.600;2022-12-07T08:50:06;41.42;;;32.67;;
30543;SDS011;43388;46.308;4.600;2022-12-07T08:52:33;41.47;;;32.47;;
30543;SDS011;43388;46.308;4.600;2022-12-07T08:54:59;46.65;;;32.78;;
30543;SDS011;43388;46.308;4.600;2022-12-07T08:57:29;40.22;;;30.77;;
30543;SDS011;43388;46.308;4.600;2022-12-07T08:59:55;50.75;;;38.50;;
30543;SDS011;43388;46.308;4.600;2022-12-07T09:02:21;35.58;;;28.13;;
30543;SDS011;43388;46.308;4.600;2022-12-07T09:04:47;33.30;;;25.67;;
30543;SDS011;43388;46.308;4.600;2022-12-07T09:07:13;37.50;;;28.38;;
30543;SDS011;43388;46.308;4.600;2022-12-07T09:09:39;48.67;;;36.60;;
30543;SDS011;43388;46.308;4.600;2022-12-07T09:12:05;51.38;;;41.35;;
30543;SDS011;43388;46.308;4.600;2022-12-07T09:14:31;39.33;;;28.92;;
30543;SDS011;43388;46.308;4.600;2022-12-07T09:17:11;41.85;;;32.97;;
30543;SDS011;43388;46.308;4.600;2022-12-07T09:19:37;44.08;;;31.83;;
30543;SDS011;43388;46.308;4.600;2022-12-07T09:22:04;37.25;;;26.98;;
30543;SDS011;43388;46.308;4.600;2022-12-07T09:24:31;44.50;;;30.60;;
30543;SDS011;43388;46.308;4.600;2022-12-07T09:26:57;44.85;;;32.67;;
30543;SDS011;43388;46.308;4.600;2022-12-07T09:29:23;43.63;;;29.85;;
30543;SDS011;43388;46.308;4.600;2022-12-07T09:31:49;42.10;;;32.17;;
30543;SDS011;43388;46.308;4.600;2022-12-07T09:34:15;37.47;;;28.38;;
30543;SDS011;43388;46.308;4.600;2022-12-07T09:36:42;40.85;;;28.42;;
30543;SDS011;43388;46.308;4.600;2022-12-07T09:39:08;37.85;;;26.83;;
30543;SDS011;43388;46.308;4.600;2022-12-07T09:41:37;36.50;;;26.80;;
30543;SDS011;43388;46.308;4.600;2022-12-07T09:44:05;46.30;;;30.08;;
30543;SDS011;43388;46.308;4.600;2022-12-07T09:46:34;39.83;;;27.75;;
30543;SDS011;43388;46.308;4.600;2022-12-07T09:49:01;37.85;;;28.63;;
30543;SDS011;43388;46.308;4.600;2022-12-07T09:51:28;37.38;;;28.60;;
30543;SDS011;43388;46.308;4.600;2022-12-07T09:53:55;37.80;;;27.98;;
30543;SDS011;43388;46.308;4.600;2022-12-07T09:56:23;37.50;;;27.25;;
30543;SDS011;43388;46.308;4.600;2022-12-07T09:58:49;34.97;;;26.25;;
30543;SDS011;43388;46.308;4.600;2022-12-07T10:01:18;33.72;;;25.92;;
30543;SDS011;43388;46.308;4.600;2022-12-07T10:03:51;31.00;;;24.23;;
30543;SDS011;43388;46.308;4.600;2022-12-07T10:06:18;33.00;;;24.70;;
30543;SDS011;43388;46.308;4.600;2022-12-07T10:08:44;33.92;;;25.13;;
30543;SDS011;43388;46.308;4.600;2022-12-07T10:11:10;32.05;;;23.98;;
30543;SDS011;43388;46.308;4.600;2022-12-07T10:16:03;33.47;;;24.73;;
30543;SDS011;43388;46.308;4.600;2022-12-07T10:23:37;37.05;;;25.65;;
30543;SDS011;43388;46.308;4.600;2022-12-07T10:28:58;33.45;;;25.05;;
30543;SDS011;43388;46.308;4.600;2022-12-07T10:31:24;32.35;;;25.23;;
30543;SDS011;43388;46.308;4.600;2022-12-07T10:33:52;35.20;;;25.23;;
30543;SDS011;43388;46.308;4.600;2022-12-07T10:36:19;30.75;;;24.40;;
30543;SDS011;43388;46.308;4.600;2022-12-07T10:38:47;29.77;;;23.45;;
30543;SDS011;43388;46.308;4.600;2022-12-07T10:41:13;30.70;;;24.15;;
30543;SDS011;43388;46.308;4.600;2022-12-07T10:43:49;31.60;;;24.45;;
30543;SDS011;43388;46.308;4.600;2022-12-07T10:59:02;31.73;;;23.75;;
30543;SDS011;43388;46.308;4.600;2022-12-07T11:01:39;33.03;;;26.35;;
30543;SDS011;43388;46.308;4.600;2022-12-07T11:06:54;30.50;;;23.70;;
30543;SDS011;43388;46.308;4.600;2022-12-07T11:14:52;31.98;;;25.65;;
30543;SDS011;43388;46.308;4.600;2022-12-07T11:17:42;30.23;;;24.45;;
30543;SDS011;43388;46.308;4.600;2022-12-07T11:30:42;31.75;;;22.33;;
30543;SDS011;43388;46.308;4.600;2022-12-07T11:40:36;28.92;;;21.88;;
30543;SDS011;43388;46.308;4.600;2022-12-07T11:43:26;26.65;;;20.80;;
30543;SDS011;43388;46.308;4.600;2022-12-07T11:45:52;27.55;;;21.40;;
30543;SDS011;43388;46.308;4.600;2022-12-07T11:48:22;26.50;;;19.95;;
30543;SDS011;43388;46.308;4.600;2022-12-07T11:50:54;24.95;;;20.52;;
30543;SDS011;43388;46.308;4.600;2022-12-07T11:53:42;24.67;;;21.38;;
30543;SDS011;43388;46.308;4.600;2022-12-07T11:56:14;24.30;;;20.52;;
30543;SDS011;43388;46.308;4.600;2022-12-07T12:06:18;31.90;;;25.13;;
30543;SDS011;43388;46.308;4.600;2022-12-07T12:21:42;26.98;;;21.13;;
30543;SDS011;43388;46.308;4.600;2022-12-07T12:24:13;21.00;;;18.10;;
30543;SDS011;43388;46.308;4.600;2022-12-07T12:26:48;26.38;;;18.63;;
30543;SDS011;43388;46.308;4.600;2022-12-07T12:29:27;28.05;;;20.65;;
30543;SDS011;43388;46.308;4.600;2022-12-07T12:33:00;24.23;;;19.15;;
30543;SDS011;43388;46.308;4.600;2022-12-07T12:42:55;22.23;;;19.95;;
30543;SDS011;43388;46.308;4.600;2022-12-07T12:45:25;26.52;;;21.48;;
30543;SDS011;43388;46.308;4.600;2022-12-07T12:47:53;23.60;;;18.83;;
30543;SDS011;43388;46.308;4.600;2022-12-07T12:50:21;24.98;;;21.10;;
30543;SDS011;43388;46.308;4.600;2022-12-07T12:52:51;21.48;;;18.55;;
30543;SDS011;43388;46.308;4.600;2022-12-07T12:55:19;22.30;;;19.98;;
30543;SDS011;43388;46.308;4.600;2022-12-07T12:57:47;24.38;;;20.48;;
30543;SDS011;43388;46.308;4.600;2022-12-07T13:00:17;22.67;;;20.27;;
30543;SDS011;43388;46.308;4.600;2022-12-07T13:05:21;20.77;;;18.00;;
30543;SDS011;43388;46.308;4.600;2022-12-07T13:10:37;19.98;;;17.88;;
30543;SDS011;43388;46.308;4.600;2022-12-07T13:15:48;17.67;;;15.85;;
30543;SDS011;43388;46.308;4.600;2022-12-07T13:20:51;18.90;;;16.90;;
30543;SDS011;43388;46.308;4.600;2022-12-07T13:28:37;19.05;;;17.00;;
30543;SDS011;43388;46.308;4.600;2022-12-07T13:33:37;17.83;;;16.02;;
30543;SDS011;43388;46.308;4.600;2022-12-07T13:36:03;17.90;;;15.18;;
30543;SDS011;43388;46.308;4.600;2022-12-07T13:38:33;17.35;;;15.55;;
30543;SDS011;43388;46.308;4.600;2022-12-07T13:41:05;18.40;;;16.40;;
30543;SDS011;43388;46.308;4.600;2022-12-07T13:43:31;18.48;;;16.23;;
30543;SDS011;43388;46.308;4.600;2022-12-07T13:45:57;18.98;;;15.60;;
30543;SDS011;43388;46.308;4.600;2022-12-07T13:48:32;20.60;;;16.60;;
30543;SDS011;43388;46.308;4.600;2022-12-07T13:50:59;19.02;;;16.63;;
30543;SDS011;43388;46.308;4.600;2022-12-07T13:53:26;18.55;;;16.17;;
30543;SDS011;43388;46.308;4.600;2022-12-07T13:55:58;16.75;;;14.95;;
30543;SDS011;43388;46.308;4.600;2022-12-07T13:58:25;15.93;;;14.23;;
30543;SDS011;43388;46.308;4.600;2022-12-07T14:00:52;19.85;;;16.30;;
30543;SDS011;43388;46.308;4.600;2022-12-07T14:05:44;15.90;;;14.07;;
30543;SDS011;43388;46.308;4.600;2022-12-07T14:15:50;19.75;;;16.48;;
30543;SDS011;43388;46.308;4.600;2022-12-07T14:21:02;18.50;;;16.52;;
30543;SDS011;43388;46.308;4.600;2022-12-07T14:23:28;20.65;;;18.45;;
30543;SDS011;43388;46.308;4.600;2022-12-07T14:26:03;46.67;;;38.33;;
30543;SDS011;43388;46.308;4.600;2022-12-07T14:30:56;27.02;;;22.48;;
30543;SDS011;43388;46.308;4.600;2022-12-07T14:33:22;20.25;;;16.92;;
30543;SDS011;43388;46.308;4.600;2022-12-07T14:35:48;23.80;;;20.05;;
30543;SDS011;43388;46.308;4.600;2022-12-07T14:38:14;19.50;;;17.45;;
30543;SDS011;43388;46.308;4.600;2022-12-07T14:40:43;19.35;;;16.92;;
30543;SDS011;43388;46.308;4.600;2022-12-07T14:43:10;17.05;;;15.35;;
30543;SDS011;43388;46.308;4.600;2022-12-07T14:45:37;17.35;;;15.57;;
30543;SDS011;43388;46.308;4.600;2022-12-07T14:48:04;17.10;;;15.30;;
30543;SDS011;43388;46.308;4.600;2022-12-07T14:50:31;19.30;;;16.90;;
30543;SDS011;43388;46.308;4.600;2022-12-07T14:53:00;18.05;;;16.08;;
30543;SDS011;43388;46.308;4.600;2022-12-07T14:55:29;18.77;;;16.77;;
30543;SDS011;43388;46.308;4.600;2022-12-07T14:57:56;18.30;;;16.33;;
30543;SDS011;43388;46.308;4.600;2022-12-07T15:00:23;20.42;;;17.02;;
30543;SDS011;43388;46.308;4.600;2022-12-07T15:02:49;20.40;;;16.73;;
30543;SDS011;43388;46.308;4.600;2022-12-07T15:05:16;18.95;;;16.95;;
30543;SDS011;43388;46.308;4.600;2022-12-07T15:07:42;20.33;;;17.38;;
30543;SDS011;43388;46.308;4.600;2022-12-07T15:10:16;18.25;;;15.27;;
30543;SDS011;43388;46.308;4.600;2022-12-07T15:12:42;17.67;;;15.87;;
30543;SDS011;43388;46.308;4.600;2022-12-07T15:15:09;16.42;;;14.75;;
30543;SDS011;43388;46.308;4.600;2022-12-07T15:17:35;17.48;;;15.55;;
30543;SDS011;43388;46.308;4.600;2022-12-07T15:20:01;18.42;;;15.55;;
30543;SDS011;43388;46.308;4.600;2022-12-07T15:22:27;19.23;;;15.50;;
30543;SDS011;43388;46.308;4.600;2022-12-07T15:24:54;18.02;;;15.88;;
30543;SDS011;43388;46.308;4.600;2022-12-07T15:27:20;18.50;;;16.55;;
30543;SDS011;43388;46.308;4.600;2022-12-07T15:29:46;18.15;;;16.25;;
30543;SDS011;43388;46.308;4.600;2022-12-07T15:32:12;17.27;;;15.48;;
30543;SDS011;43388;46.308;4.600;2022-12-07T15:34:38;17.40;;;15.55;;
30543;SDS011;43388;46.308;4.600;2022-12-07T15:37:04;16.75;;;15.05;;
30543;SDS011;43388;46.308;4.600;2022-12-07T15:39:31;16.35;;;14.57;;
30543;SDS011;43388;46.308;4.600;2022-12-07T15:41:57;15.90;;;14.20;;
30543;SDS011;43388;46.308;4.600;2022-12-07T15:44:23;19.45;;;15.57;;
30543;SDS011;43388;46.308;4.600;2022-12-07T15:47:07;18.05;;;16.15;;
30543;SDS011;43388;46.308;4.600;2022-12-07T15:49:33;16.73;;;14.57;;
30543;SDS011;43388;46.308;4.600;2022-12-07T15:52:00;16.77;;;15.02;;
30543;SDS011;43388;46.308;4.600;2022-12-07T15:54:26;16.70;;;15.05;;
30543;SDS011;43388;46.308;4.600;2022-12-07T15:56:53;15.68;;;14.10;;
30543;SDS011;43388;46.308;4.600;2022-12-07T15:59:19;16.25;;;14.57;;
30543;SDS011;43388;46.308;4.600;2022-12-07T16:01:45;15.90;;;14.20;;
30543;SDS011;43388;46.308;4.600;2022-12-07T16:04:11;17.23;;;15.30;;
30543;SDS011;43388;46.308;4.600;2022-12-07T16:06:38;16.60;;;14.75;;
30543;SDS011;43388;46.308;4.600;2022-12-07T16:09:04;15.23;;;13.68;;
30543;SDS011;43388;46.308;4.600;2022-12-07T16:11:30;17.30;;;15.50;;
30543;SDS011;43388;46.308;4.600;2022-12-07T16:13:56;23.70;;;21.40;;
30543;SDS011;43388;46.308;4.600;2022-12-07T16:16:22;19.25;;;17.25;;
30543;SDS011;43388;46.308;4.600;2022-12-07T16:18:49;18.42;;;16.63;;
30543;SDS011;43388;46.308;4.600;2022-12-07T16:21:16;17.10;;;14.23;;
30543;SDS011;43388;46.308;4.600;2022-12-07T16:23:42;18.40;;;15.30;;
30543;SDS011;43388;46.308;4.600;2022-12-07T16:26:10;16.77;;;15.07;;
30543;SDS011;43388;46.308;4.600;2022-12-07T16:28:36;17.58;;;15.20;;
30543;SDS011;43388;46.308;4.600;2022-12-07T16:31:06;16.70;;;14.98;;
30543;SDS011;43388;46.308;4.600;2022-12-07T16:33:36;18.00;;;16.10;;
30543;SDS011;43388;46.308;4.600;2022-12-07T16:36:03;21.80;;;17.55;;
30543;SDS011;43388;46.308;4.600;2022-12-07T16:38:29;19.42;;;17.30;;
30543;SDS011;43388;46.308;4.600;2022-12-07T16:40:55;20.40;;;18.27;;
30543;SDS011;43388;46.308;4.600;2022-12-07T16:43:22;18.77;;;16.88;;
30543;SDS011;43388;46.308;4.600;2022-12-07T16:45:48;18.88;;;16.88;;
30543;SDS011;43388;46.308;4.600;2022-12-07T16:48:14;20.10;;;17.83;;
30543;SDS011;43388;46.308;4.600;2022-12-07T16:50:40;21.23;;;16.58;;